createdAt,value
2022-12-23T13:25:50.281Z,65.08
2022-12-23T13:30:56.856Z,65.26
2022-12-23T13:36:14.927Z,64.96
2022-12-23T13:41:24.189Z,64.59
2022-12-23T13:46:35.938Z,64.34
2022-12-23T13:51:42.674Z,64.69
2022-12-23T13:56:49.690Z,64.58
2022-12-23T14:01:53.337Z,64.63
2022-12-23T14:06:57.175Z,64.46
2022-12-23T14:12:12.651Z,64.68
2022-12-23T14:17:20.953Z,64.71
2022-12-23T14:22:36.839Z,64.55
2022-12-23T14:27:49.309Z,65.25
2022-12-23T14:32:53.942Z,64.85
2022-12-23T14:38:24.794Z,64.50
2022-12-23T14:43:34.169Z,64.49
2022-12-23T14:49:38.358Z,64.68
2022-12-23T14:54:39.208Z,64.46
2022-12-23T14:59:46.791Z,64.73
2022-12-23T15:04:52.208Z,64.66
2022-12-23T15:10:01.079Z,64.72
2022-12-23T15:15:07.819Z,64.64
2022-12-23T15:20:15.191Z,64.67
2022-12-23T15:25:22.766Z,64.62
2022-12-23T15:30:27.934Z,64.88
2022-12-23T15:35:32.645Z,64.96
2022-12-23T15:40:37.817Z,64.77
2022-12-23T15:45:43.310Z,64.62
2022-12-23T15:50:46.258Z,64.09
2022-12-23T15:55:50.208Z,64.54
2022-12-23T16:00:55.828Z,64.45
2022-12-23T16:06:07.918Z,64.58
2022-12-23T16:11:16.108Z,64.33
2022-12-23T16:16:27.883Z,64.40
2022-12-23T16:21:33.245Z,64.35
2022-12-23T16:26:41.190Z,64.65
2022-12-23T16:31:52.144Z,64.66
2022-12-23T16:36:58.569Z,64.61
2022-12-23T16:42:01.306Z,64.37
2022-12-23T16:47:08.358Z,64.36
2022-12-23T16:52:14.183Z,64.16
2022-12-23T16:57:16.909Z,64.26
2022-12-23T17:02:24.413Z,64.03
2022-12-23T17:07:27.685Z,64.20
2022-12-23T17:12:30.416Z,64.61
2022-12-23T17:17:39.438Z,64.90
2022-12-23T17:22:43.937Z,64.62
2022-12-23T17:27:46.591Z,64.87
2022-12-23T17:32:52.530Z,64.81
2022-12-23T17:37:55.457Z,64.68
2022-12-23T17:42:58.184Z,64.93
2022-12-23T17:48:02.233Z,65.00
2022-12-23T17:53:04.955Z,65.01
2022-12-23T17:58:07.677Z,64.58
2022-12-23T18:03:22.429Z,64.31
2022-12-23T18:08:25.794Z,64.40
2022-12-23T18:13:28.557Z,64.19
2022-12-23T18:18:43.473Z,64.64
2022-12-23T18:23:48.825Z,64.53
2022-12-23T18:28:53.918Z,65.19
2022-12-23T18:33:59.534Z,66.00
2022-12-23T18:39:02.206Z,66.33
2022-12-23T18:44:05.141Z,66.52
2022-12-23T18:49:09.192Z,66.85
2022-12-23T18:54:14.417Z,66.59
2022-12-23T18:59:21.372Z,66.84
2022-12-23T19:04:31.350Z,66.81
2022-12-23T19:09:34.053Z,67.29
2022-12-23T19:14:36.704Z,67.45
2022-12-23T19:19:40.803Z,67.78
2022-12-23T19:25:03.876Z,67.34
2022-12-23T19:30:07.857Z,67.48
2022-12-23T19:35:13.460Z,67.30
2022-12-23T19:40:16.809Z,66.81
2022-12-23T19:45:19.654Z,66.45
2022-12-23T19:50:23.787Z,66.47
2022-12-23T19:55:26.444Z,66.10
2022-12-23T20:00:29.223Z,66.32
2022-12-23T20:05:33.278Z,66.05
2022-12-23T20:10:35.977Z,65.94
2022-12-23T20:15:38.751Z,65.97
2022-12-23T20:20:45.803Z,66.30
2022-12-23T20:25:48.541Z,66.38
2022-12-23T20:30:59.970Z,65.91
2022-12-23T20:36:04.255Z,66.18
2022-12-23T20:41:07.029Z,66.30
2022-12-23T20:46:12.035Z,66.64
2022-12-23T20:51:18.051Z,66.44
2022-12-23T20:56:22.019Z,66.28
2022-12-23T21:01:27.327Z,66.34
2022-12-23T21:06:32.281Z,67.15
2022-12-23T21:11:37.710Z,67.74
2022-12-23T21:16:41.224Z,68.20
2022-12-23T21:21:45.804Z,68.14
2022-12-23T21:26:56.478Z,68.51
2022-12-23T21:32:00.455Z,68.51
2022-12-23T21:37:04.719Z,68.88
2022-12-23T21:42:07.455Z,68.33
2022-12-23T21:47:10.177Z,68.50
2022-12-23T21:52:14.371Z,68.15
2022-12-23T21:57:17.036Z,67.97
2022-12-23T22:02:19.738Z,67.99
2022-12-23T22:07:23.901Z,67.95
2022-12-23T22:12:26.598Z,68.08
2022-12-23T22:17:29.203Z,68.05
2022-12-23T22:22:33.180Z,68.03
2022-12-23T22:27:35.841Z,68.01
2022-12-23T22:32:42.392Z,67.94
2022-12-23T22:37:46.744Z,67.66
2022-12-23T22:42:49.366Z,67.43
2022-12-23T22:47:52.036Z,67.56
2022-12-23T22:52:56.408Z,67.27
2022-12-23T22:57:59.040Z,67.46
2022-12-23T23:03:01.768Z,67.01
2022-12-23T23:08:06.256Z,67.47
2022-12-23T23:13:08.984Z,67.42
2022-12-23T23:18:11.626Z,67.27
2022-12-23T23:23:15.768Z,67.62
2022-12-23T23:28:18.699Z,67.76
2022-12-23T23:33:21.410Z,67.84
2022-12-23T23:38:26.172Z,67.94
2022-12-23T23:43:28.826Z,68.37
2022-12-23T23:48:31.466Z,68.11
2022-12-23T23:53:35.444Z,68.69
2022-12-23T23:58:38.241Z,68.81
